Time;durP1;ratioP1;P1;durP2;ratioP2;P2;SDS_P1;SDS_P2;PMS_P1;PMS_P2;Temp;Humidity;BMP_temperature;BMP_pressure;BME280_temperature;BME280_humidity;BME280_pressure;Samples;Min_cycle;Max_cycle;Signal;HPM_P1;HPM_P2
2022/10/16 00:01:30;159049.00;0.53;275.40;0.00;0.00;0.62;;;;;20.80;4.70;;;;;;2276575;61;2027;-85
2022/10/16 00:03:58;191178.00;0.64;330.74;0.00;0.00;0.62;;;;;20.70;4.40;;;;;;2276588;61;1280;-85
2022/10/16 00:06:26;379865.00;1.27;655.19;0.00;0.00;0.62;;;;;20.70;4.70;;;;;;2276550;61;1060;-87
2022/10/16 00:08:54;15650.00;0.05;27.74;0.00;0.00;0.62;;;;;20.60;4.80;;;;;;2276429;61;975;-86
2022/10/16 00:11:23;45941.00;0.15;80.17;0.00;0.00;0.62;;;;;20.50;4.90;;;;;;2276441;61;1164;-87
2022/10/16 00:13:52;257051.00;0.86;444.08;0.00;0.00;0.62;;;;;20.60;4.40;;;;;;2276396;61;1278;-86
2022/10/16 00:16:20;116106.00;0.39;201.36;0.00;0.00;0.62;;;;;20.70;4.30;;;;;;2276470;61;1087;-86
2022/10/16 00:18:48;114136.00;0.38;197.97;0.00;0.00;0.62;;;;;20.60;4.50;;;;;;2276457;61;1070;-86
2022/10/16 00:21:17;126747.00;0.42;219.72;0.00;0.00;0.62;;;;;20.60;4.20;;;;;;2276425;61;1919;-87
2022/10/16 00:23:44;166103.00;0.55;287.55;0.00;0.00;0.62;;;;;20.70;4.40;;;;;;2276417;61;1400;-86
2022/10/16 00:26:14;408836.00;1.36;705.00;108400.00;0.36;188.07;;;;;20.60;4.30;;;;;;2276573;61;1109;-85
2022/10/16 00:28:41;287072.00;0.96;495.70;0.00;0.00;0.62;;;;;20.50;4.40;;;;;;2276481;61;1173;-86
2022/10/16 00:31:10;89442.00;0.30;155.34;0.00;0.00;0.62;;;;;20.50;4.80;;;;;;2276451;61;1115;-85
2022/10/16 00:33:39;265943.00;0.89;459.37;113977.00;0.38;197.69;;;;;20.50;5.30;;;;;;2276455;61;1136;-85
2022/10/16 00:36:09;144783.00;0.48;250.82;0.00;0.00;0.62;;;;;20.50;5.50;;;;;;2276436;61;1386;-85
2022/10/16 00:38:37;119214.00;0.40;206.73;0.00;0.00;0.62;;;;;20.30;5.20;;;;;;2276464;61;988;-86
2022/10/16 00:41:04;67136.00;0.22;116.81;0.00;0.00;0.62;;;;;20.20;5.70;;;;;;2276427;61;2005;-85
2022/10/16 00:43:38;355560.00;1.19;613.42;90282.00;0.30;156.79;;;;;20.20;5.70;;;;;;2276479;61;1041;-86
2022/10/16 00:46:11;137718.00;0.46;238.64;0.00;0.00;0.62;;;;;20.00;6.10;;;;;;2276426;61;1282;-84
2022/10/16 00:48:38;90722.00;0.30;157.55;0.00;0.00;0.62;;;;;20.20;6.30;;;;;;2276431;61;1116;-86
2022/10/16 00:51:09;310457.00;1.03;535.90;0.00;0.00;0.62;;;;;20.20;6.30;;;;;;2276434;61;1164;-85
2022/10/16 00:53:37;106233.00;0.35;184.33;0.00;0.00;0.62;;;;;20.30;6.10;;;;;;2276459;61;996;-85
2022/10/16 00:56:05;55709.00;0.19;97.06;0.00;0.00;0.62;;;;;20.20;6.30;;;;;;2276410;61;1322;-85
2022/10/16 00:58:32;210087.00;0.70;363.29;0.00;0.00;0.62;;;;;20.20;5.60;;;;;;2276205;61;983;-85
2022/10/16 01:00:59;46462.00;0.15;81.07;0.00;0.00;0.62;;;;;20.20;5.80;;;;;;2276401;61;1915;-85
2022/10/16 01:03:29;262438.00;0.87;453.34;0.00;0.00;0.62;;;;;20.20;6.20;;;;;;2276313;61;1440;-86
2022/10/16 01:06:16;250959.00;0.84;433.60;0.00;0.00;0.62;;;;;20.30;5.80;;;;;;2276365;61;1402;-84
2022/10/16 01:08:58;88884.00;0.30;154.38;0.00;0.00;0.62;;;;;20.40;5.50;;;;;;2276394;61;1115;-85
2022/10/16 01:11:35;333636.00;1.11;575.74;0.00;0.00;0.62;;;;;20.50;5.00;;;;;;2276397;61;1187;-85
2022/10/16 01:14:12;90186.00;0.30;156.63;0.00;0.00;0.62;;;;;20.40;4.60;;;;;;2276304;61;1269;-85
2022/10/16 01:16:47;127521.00;0.43;221.05;0.00;0.00;0.62;;;;;20.40;5.30;;;;;;2276321;61;1055;-85
2022/10/16 01:19:21;480731.00;1.60;828.66;161833.00;0.54;280.20;;;;;20.20;5.50;;;;;;2276369;61;1059;-85
2022/10/16 01:21:54;234069.00;0.78;404.55;0.00;0.00;0.62;;;;;19.90;5.90;;;;;;2276314;61;1986;-84
2022/10/16 01:24:33;349776.00;1.17;603.48;0.00;0.00;0.62;;;;;19.60;6.50;;;;;;2276259;61;1333;-89
2022/10/16 01:27:15;155193.00;0.52;268.76;0.00;0.00;0.62;;;;;19.60;6.50;;;;;;2276252;61;1001;-86
2022/10/16 01:29:52;116372.00;0.39;201.82;0.00;0.00;0.62;;;;;19.90;6.10;;;;;;2276214;61;1064;-85
2022/10/16 01:32:24;90582.00;0.30;157.31;0.00;0.00;0.62;;;;;20.00;6.20;;;;;;2276218;61;1204;-86
2022/10/16 01:34:58;246946.00;0.82;426.70;0.00;0.00;0.62;;;;;20.20;6.30;;;;;;2276179;61;1473;-86
2022/10/16 01:37:33;225441.00;0.75;389.71;42539.00;0.14;74.28;;;;;20.10;6.20;;;;;;2276171;61;936;-86
2022/10/16 01:40:04;0.00;0.00;0.62;0.00;0.00;0.62;;;;;20.00;6.20;;;;;;2276004;61;1012;-85
2022/10/16 01:42:38;138509.00;0.46;240.00;0.00;0.00;0.62;;;;;20.00;6.20;;;;;;2276147;61;1974;-84
2022/10/16 01:45:08;71558.00;0.24;124.45;0.00;0.00;0.62;;;;;20.00;6.20;;;;;;2276223;61;1420;-85
2022/10/16 01:47:37;104585.00;0.35;181.49;0.00;0.00;0.62;;;;;20.00;6.20;;;;;;2276058;61;1163;-85
2022/10/16 01:50:06;98584.00;0.33;171.13;0.00;0.00;0.62;;;;;19.90;6.10;;;;;;2276199;61;1608;-85
2022/10/16 01:52:38;162302.00;0.54;281.01;0.00;0.00;0.62;;;;;19.70;6.90;;;;;;2276264;61;1029;-86
2022/10/16 01:55:09;93796.00;0.31;162.86;0.00;0.00;0.62;;;;;19.60;7.00;;;;;;2276136;61;1461;-86
2022/10/16 01:57:43;131891.00;0.44;228.59;0.00;0.00;0.62;;;;;19.80;6.50;;;;;;2276144;61;1156;-86
2022/10/16 02:00:14;221174.00;0.74;382.36;0.00;0.00;0.62;;;;;20.00;6.30;;;;;;2276230;61;946;-86
2022/10/16 02:02:45;373939.00;1.25;645.01;0.00;0.00;0.62;;;;;20.10;6.20;;;;;;2276099;61;1935;-86
2022/10/16 02:05:21;72291.00;0.24;125.72;0.00;0.00;0.62;;;;;20.20;6.30;;;;;;2276206;61;1465;-85
2022/10/16 02:07:48;423691.00;1.41;730.54;84035.00;0.28;146.01;;;;;20.20;6.00;;;;;;2276167;61;1142;-86
2022/10/16 02:10:15;373918.00;1.25;644.97;72526.00;0.24;126.13;;;;;20.20;6.30;;;;;;2276816;61;908;-86
2022/10/16 02:12:48;361324.00;1.20;623.32;92745.00;0.31;161.05;;;;;20.30;6.00;;;;;;2276923;61;1139;-85
2022/10/16 02:15:15;186386.00;0.62;322.49;61654.00;0.21;107.34;;;;;20.40;6.10;;;;;;2276797;61;1449;-86
2022/10/16 02:17:42;233575.00;0.78;403.70;59650.00;0.20;103.87;;;;;20.20;6.10;;;;;;2276912;61;1128;-86
2022/10/16 02:20:10;192827.00;0.64;333.58;0.00;0.00;0.62;;;;;20.20;6.30;;;;;;2276941;61;1104;-86
2022/10/16 02:22:42;344231.00;1.15;593.95;64614.00;0.22;112.45;;;;;20.20;6.90;;;;;;2276748;61;1919;-86
2022/10/16 02:25:12;239451.00;0.80;413.81;0.00;0.00;0.62;;;;;19.90;6.20;;;;;;2276876;61;1450;-87
2022/10/16 02:27:49;344498.00;1.15;594.40;0.00;0.00;0.62;;;;;20.10;6.20;;;;;;2276865;61;1082;-85
2022/10/16 02:30:23;284628.00;0.95;491.49;47294.00;0.16;82.51;;;;;20.20;6.30;;;;;;2276917;61;1227;-86
2022/10/16 02:32:52;277265.00;0.92;478.84;74556.00;0.25;129.63;;;;;20.10;6.30;;;;;;2276805;61;995;-87
2022/10/16 02:35:23;285181.00;0.95;492.44;53933.00;0.18;93.99;;;;;19.90;6.50;;;;;;2276759;61;1333;-85
2022/10/16 02:37:52;157014.00;0.52;271.89;63780.00;0.21;111.01;;;;;19.90;6.50;;;;;;2276741;61;1109;-87
2022/10/16 02:40:20;249473.00;0.83;431.04;62812.00;0.21;109.34;;;;;20.00;6.50;;;;;;2276729;61;1565;-87
2022/10/16 02:42:51;376664.00;1.26;649.69;96875.00;0.32;168.18;;;;;19.80;6.80;;;;;;2276792;61;1915;-86
2022/10/16 02:45:19;293997.00;0.98;507.60;109566.00;0.37;190.08;;;;;19.90;7.70;;;;;;2276841;61;1437;-87
2022/10/16 02:47:46;611286.00;2.04;1053.71;204275.00;0.68;353.28;;;;;20.00;7.10;;;;;;2276752;61;1123;-87
2022/10/16 02:50:13;227863.00;0.76;393.87;62175.00;0.21;108.24;;;;;20.00;7.30;;;;;;2276775;61;1103;-86
2022/10/16 02:52:43;369852.00;1.23;637.98;94095.00;0.31;163.38;;;;;20.00;7.20;;;;;;2276680;61;939;-88
2022/10/16 02:55:10;50548.00;0.17;88.13;0.00;0.00;0.62;;;;;19.90;7.70;;;;;;2276743;61;1267;-86
2022/10/16 02:57:38;227975.00;0.76;394.07;0.00;0.00;0.62;;;;;19.80;7.20;;;;;;2276802;61;1088;-86
2022/10/16 03:00:08;18312.00;0.06;32.35;0.00;0.00;0.62;;;;;20.10;6.30;;;;;;2276821;61;1247;-87
2022/10/16 03:02:35;76823.00;0.26;133.55;0.00;0.00;0.62;;;;;20.00;6.60;;;;;;2276721;61;1982;-87
2022/10/16 03:05:02;148669.00;0.50;257.51;0.00;0.00;0.62;;;;;19.90;7.30;;;;;;2276749;61;1410;-86
2022/10/16 03:07:29;450396.00;1.50;776.46;173265.00;0.58;299.89;;;;;20.00;7.20;;;;;;2276658;61;1624;-86
2022/10/16 03:09:56;93346.00;0.31;162.08;0.00;0.00;0.62;;;;;20.10;7.00;;;;;;2276729;61;1043;-86
2022/10/16 03:12:23;417205.00;1.39;719.38;61659.00;0.21;107.34;;;;;20.10;6.40;;;;;;2276687;61;1050;-87
2022/10/16 03:14:50;500128.00;1.67;862.04;91050.00;0.30;158.12;;;;;20.20;6.40;;;;;;2276603;61;1589;-87
2022/10/16 03:17:18;294271.00;0.98;508.07;92263.00;0.31;160.22;;;;;20.00;6.40;;;;;;2276682;61;1212;-87
2022/10/16 03:19:45;89349.00;0.30;155.18;0.00;0.00;0.62;;;;;19.90;7.00;;;;;;2276644;61;1039;-86
2022/10/16 03:22:12;132957.00;0.44;230.43;0.00;0.00;0.62;;;;;19.70;7.40;;;;;;2276533;61;1911;-86
2022/10/16 03:24:39;44574.00;0.15;77.80;0.00;0.00;0.62;;;;;19.70;7.50;;;;;;2276703;61;1310;-87
2022/10/16 03:27:05;181526.00;0.61;314.12;0.00;0.00;0.62;;;;;19.90;7.20;;;;;;2276649;61;945;-86
2022/10/16 03:29:33;362863.00;1.21;625.97;65061.00;0.22;113.22;;;;;20.00;6.70;;;;;;2276446;61;998;-85
2022/10/16 03:32:00;139721.00;0.47;242.09;0.00;0.00;0.62;;;;;20.00;7.00;;;;;;2276699;61;1451;-88
2022/10/16 03:34:28;206004.00;0.69;356.26;46045.00;0.15;80.35;;;;;19.60;8.10;;;;;;2276707;61;1413;-86
2022/10/16 03:36:55;130961.00;0.44;226.99;0.00;0.00;0.62;;;;;19.60;8.00;;;;;;2276560;61;990;-86
2022/10/16 03:39:22;101138.00;0.34;175.54;0.00;0.00;0.62;;;;;19.70;8.40;;;;;;2276722;61;1040;-85
2022/10/16 03:41:49;110720.00;0.37;192.07;0.00;0.00;0.62;;;;;19.60;8.30;;;;;;2276553;61;1998;-86
2022/10/16 03:44:16;45758.00;0.15;79.85;0.00;0.00;0.62;;;;;19.60;8.30;;;;;;2276630;61;1368;-86
2022/10/16 03:46:42;142560.00;0.48;246.98;0.00;0.00;0.62;;;;;19.80;7.60;;;;;;2276694;61;1104;-85
2022/10/16 03:49:09;63972.00;0.21;111.34;0.00;0.00;0.62;;;;;19.70;7.60;;;;;;2276547;61;1013;-86
2022/10/16 03:51:37;58924.00;0.20;102.62;0.00;0.00;0.62;;;;;19.90;8.20;;;;;;2276653;61;1076;-87
2022/10/16 03:54:04;118224.00;0.39;205.02;0.00;0.00;0.62;;;;;20.00;7.70;;;;;;2276543;61;1489;-86
2022/10/16 03:56:31;153561.00;0.51;265.94;47594.00;0.16;83.03;;;;;20.20;7.50;;;;;;2276536;61;975;-88
2022/10/16 03:58:58;169717.00;0.57;293.78;0.00;0.00;0.62;;;;;20.10;7.20;;;;;;2276613;61;1003;-87
2022/10/16 04:01:25;64341.00;0.21;111.98;0.00;0.00;0.62;;;;;20.00;7.00;;;;;;2276450;61;2000;-85
2022/10/16 04:03:51;92722.00;0.31;161.01;0.00;0.00;0.62;;;;;19.90;7.90;;;;;;2276500;61;1337;-85
2022/10/16 04:06:18;0.00;0.00;0.62;0.00;0.00;0.62;;;;;20.10;7.20;;;;;;2276495;61;1056;-86
2022/10/16 04:08:47;72701.00;0.24;126.43;0.00;0.00;0.62;;;;;20.20;7.00;;;;;;2276582;61;1077;-87
2022/10/16 04:11:14;182427.00;0.61;315.67;0.00;0.00;0.62;;;;;20.00;7.70;;;;;;2276553;61;1062;-87
2022/10/16 04:13:41;78347.00;0.26;136.18;0.00;0.00;0.62;;;;;19.70;8.10;;;;;;2276411;61;1137;-87
2022/10/16 04:16:08;133852.00;0.45;231.97;16089.00;0.05;28.50;;;;;19.60;9.00;;;;;;2276518;61;1226;-87
2022/10/16 04:18:35;36889.00;0.12;64.51;0.00;0.00;0.62;;;;;19.80;8.40;;;;;;2276512;61;1118;-86
2022/10/16 04:21:04;128240.00;0.43;222.29;0.00;0.00;0.62;;;;;19.90;7.90;;;;;;2276495;61;973;-87
2022/10/16 04:23:31;128137.00;0.43;222.12;0.00;0.00;0.62;;;;;20.00;7.50;;;;;;2276474;61;1932;-85
2022/10/16 04:26:01;60969.00;0.20;106.15;0.00;0.00;0.62;;;;;20.10;7.80;;;;;;2276505;61;1310;-86
2022/10/16 04:28:28;25990.00;0.09;45.64;0.00;0.00;0.62;;;;;20.10;7.40;;;;;;2276472;61;1002;-86
2022/10/16 04:30:55;84451.00;0.28;146.73;0.00;0.00;0.62;;;;;20.00;7.50;;;;;;2276493;61;1638;-86
2022/10/16 04:33:22;12996.00;0.04;23.14;0.00;0.00;0.62;;;;;19.90;7.90;;;;;;2276402;61;1172;-85
2022/10/16 04:35:49;102094.00;0.34;177.19;0.00;0.00;0.62;;;;;19.90;8.40;;;;;;2276459;61;1320;-85
2022/10/16 04:38:17;19778.00;0.07;34.89;0.00;0.00;0.62;;;;;19.90;8.30;;;;;;2276428;61;1027;-85
2022/10/16 04:40:44;36020.00;0.12;63.00;0.00;0.00;0.62;;;;;19.80;8.10;;;;;;2276469;61;1107;-86
2022/10/16 04:43:12;208683.00;0.70;360.87;46335.00;0.15;80.85;;;;;19.80;8.60;;;;;;2276485;61;1997;-85
2022/10/16 04:45:39;91853.00;0.31;159.51;0.00;0.00;0.62;;;;;19.70;8.50;;;;;;2276412;61;1283;-87
2022/10/16 04:48:06;31974.00;0.11;56.00;0.00;0.00;0.62;;;;;19.80;8.20;;;;;;2276349;61;1172;-85
2022/10/16 04:50:32;75524.00;0.25;131.30;0.00;0.00;0.62;;;;;19.80;8.30;;;;;;2276439;61;1123;-86
2022/10/16 04:52:59;19414.00;0.06;34.26;0.00;0.00;0.62;;;;;19.60;8.50;;;;;;2275995;61;1073;-86
2022/10/16 04:55:26;194026.00;0.65;335.64;0.00;0.00;0.62;;;;;19.70;9.00;;;;;;2276424;61;1385;-87
2022/10/16 04:57:53;114819.00;0.38;199.14;0.00;0.00;0.62;;;;;19.70;9.00;;;;;;2276367;61;1079;-85
2022/10/16 05:00:22;81437.00;0.27;141.52;0.00;0.00;0.62;;;;;19.70;9.00;;;;;;2276300;61;1445;-86
2022/10/16 05:02:51;70115.00;0.23;121.96;0.00;0.00;0.62;;;;;19.80;8.30;;;;;;2276353;61;1915;-86
2022/10/16 05:05:19;111939.00;0.37;194.18;0.00;0.00;0.62;;;;;19.60;9.30;;;;;;2276413;61;1312;-86
2022/10/16 05:07:46;58573.00;0.20;102.01;0.00;0.00;0.62;;;;;19.80;8.80;;;;;;2276439;61;991;-87
2022/10/16 05:10:12;213660.00;0.71;369.43;0.00;0.00;0.62;;;;;19.90;8.90;;;;;;2276344;61;1035;-87
2022/10/16 05:12:39;19679.00;0.07;34.71;0.00;0.00;0.62;;;;;19.90;8.50;;;;;;2276247;61;1108;-87
2022/10/16 05:15:07;41487.00;0.14;72.46;0.00;0.00;0.62;;;;;19.80;8.10;;;;;;2276220;61;1433;-87
2022/10/16 05:17:35;0.00;0.00;0.62;0.00;0.00;0.62;;;;;19.70;8.40;;;;;;2276349;61;980;-86
2022/10/16 05:20:03;137255.00;0.46;237.84;0.00;0.00;0.62;;;;;19.70;8.90;;;;;;2276297;61;1051;-86
2022/10/16 05:22:29;86977.00;0.29;151.09;0.00;0.00;0.62;;;;;19.60;8.00;;;;;;2276129;61;2028;-86
2022/10/16 05:24:56;158944.00;0.53;275.22;0.00;0.00;0.62;;;;;19.70;8.10;;;;;;2276274;61;1310;-87
2022/10/16 05:27:23;141371.00;0.47;244.93;0.00;0.00;0.62;;;;;19.70;9.30;;;;;;2276284;61;1138;-87
2022/10/16 05:29:50;54873.00;0.18;95.61;0.00;0.00;0.62;;;;;19.60;8.00;;;;;;2276244;61;1140;-87
2022/10/16 05:32:18;386227.00;1.29;666.13;126209.00;0.42;218.79;;;;;19.70;8.80;;;;;;2276308;61;1139;-88
2022/10/16 05:34:46;9371.00;0.03;16.86;0.00;0.00;0.62;;;;;19.90;8.50;;;;;;2276340;61;1318;-87
2022/10/16 05:37:14;217101.00;0.72;375.36;0.00;0.00;0.62;;;;;20.00;7.90;;;;;;2276350;61;1095;-86
2022/10/16 05:39:40;296453.00;0.99;511.82;0.00;0.00;0.62;;;;;20.00;7.20;;;;;;2276242;61;1112;-86
2022/10/16 05:42:08;449273.00;1.50;774.53;66584.00;0.22;115.86;;;;;19.90;7.30;;;;;;2276223;61;1907;-86
2022/10/16 05:44:34;265146.00;0.88;458.00;0.00;0.00;0.62;;;;;19.60;8.30;;;;;;2276109;61;1365;-86
2022/10/16 05:47:01;74905.00;0.25;130.24;0.00;0.00;0.62;;;;;19.70;8.30;;;;;;2276255;61;1556;-87
2022/10/16 05:49:28;60759.00;0.20;105.79;0.00;0.00;0.62;;;;;19.70;8.80;;;;;;2276229;61;1188;-87
2022/10/16 05:51:56;85507.00;0.29;148.55;0.00;0.00;0.62;;;;;19.70;8.30;;;;;;2276254;61;1167;-87
2022/10/16 05:54:23;51486.00;0.17;89.76;0.00;0.00;0.62;;;;;19.70;8.70;;;;;;2276121;61;1301;-86
2022/10/16 05:56:50;164603.00;0.55;284.97;0.00;0.00;0.62;;;;;19.80;8.40;;;;;;2276199;61;1079;-87
2022/10/16 05:59:17;154891.00;0.52;268.24;0.00;0.00;0.62;;;;;19.80;8.70;;;;;;2276213;61;1093;-87
2022/10/16 06:01:44;464253.00;1.55;800.30;0.00;0.00;0.62;;;;;19.80;8.90;;;;;;2276216;61;1060;-87
2022/10/16 06:04:11;198268.00;0.66;342.94;0.00;0.00;0.62;;;;;19.70;8.50;;;;;;2276020;61;2008;-86
2022/10/16 06:06:38;145795.00;0.49;252.56;0.00;0.00;0.62;;;;;19.80;9.20;;;;;;2276118;61;1688;-86
2022/10/16 06:09:06;268047.00;0.89;462.99;54789.00;0.18;95.47;;;;;20.00;8.70;;;;;;2276109;61;1127;-86
2022/10/16 06:11:34;202401.00;0.67;350.06;0.00;0.00;0.62;;;;;19.90;8.40;;;;;;2276155;61;1106;-87
2022/10/16 06:14:06;126207.00;0.42;218.79;0.00;0.00;0.62;;;;;19.90;8.00;;;;;;2276136;61;1376;-87
2022/10/16 06:16:34;26832.00;0.09;47.10;0.00;0.00;0.62;;;;;20.00;8.80;;;;;;2276101;61;1060;-86
2022/10/16 06:19:01;185363.00;0.62;320.72;0.00;0.00;0.62;;;;;20.20;8.40;;;;;;2276211;61;1047;-84
2022/10/16 06:21:29;80862.00;0.27;140.53;0.00;0.00;0.62;;;;;20.30;7.70;;;;;;2276210;61;1042;-86
2022/10/16 06:23:57;104907.00;0.35;182.04;0.00;0.00;0.62;;;;;20.20;8.00;;;;;;2276052;61;1989;-86
2022/10/16 06:26:28;163473.00;0.54;283.02;0.00;0.00;0.62;;;;;20.20;8.20;;;;;;2276125;61;1119;-86
2022/10/16 06:28:56;142604.00;0.48;247.06;41841.00;0.14;73.07;;;;;20.40;7.50;;;;;;2276187;61;1067;-86
2022/10/16 06:31:27;307932.00;1.03;531.55;0.00;0.00;0.62;;;;;20.20;7.60;;;;;;2276180;61;959;-85
2022/10/16 06:33:54;72815.00;0.24;126.62;0.00;0.00;0.62;;;;;20.20;7.20;;;;;;2276020;61;1475;-86
2022/10/16 06:36:22;48124.00;0.16;83.94;0.00;0.00;0.62;;;;;20.20;7.90;;;;;;2276167;61;1074;-86
2022/10/16 06:38:49;254838.00;0.85;440.27;58552.00;0.20;101.97;;;;;20.20;7.50;;;;;;2276173;61;1066;-86
2022/10/16 06:41:17;95430.00;0.32;165.68;0.00;0.00;0.62;;;;;20.10;8.40;;;;;;2276156;61;1040;-86
2022/10/16 06:43:46;120848.00;0.40;209.55;0.00;0.00;0.62;;;;;20.30;8.20;;;;;;2276086;61;2020;-88
2022/10/16 06:46:15;207759.00;0.69;359.28;0.00;0.00;0.62;;;;;20.30;8.30;;;;;;2276068;61;1591;-87
2022/10/16 06:48:42;174267.00;0.58;301.62;0.00;0.00;0.62;;;;;20.40;8.20;;;;;;2276139;61;1140;-85
2022/10/16 06:51:11;263643.00;0.88;455.41;0.00;0.00;0.62;;;;;20.50;7.80;;;;;;2276078;61;1425;-86
2022/10/16 06:53:39;244070.00;0.81;421.75;0.00;0.00;0.62;;;;;20.40;8.60;;;;;;2276075;61;1071;-86
2022/10/16 06:56:10;329325.00;1.10;568.33;3467.00;0.01;6.63;;;;;20.50;8.70;;;;;;2276380;61;1265;-88
2022/10/16 06:58:37;174254.00;0.58;301.59;20366.00;0.07;35.90;;;;;20.50;8.20;;;;;;2276802;61;1091;-86
2022/10/16 07:01:06;136073.00;0.45;235.80;25903.00;0.09;45.49;;;;;20.40;8.20;;;;;;2276776;61;1481;-86
2022/10/16 07:03:34;156362.00;0.52;270.77;72863.00;0.24;126.71;;;;;20.40;8.50;;;;;;2276757;61;2018;-87
2022/10/16 07:06:04;138317.00;0.46;239.67;0.00;0.00;0.62;;;;;20.40;8.90;;;;;;2276601;61;1292;-88
2022/10/16 07:08:32;97587.00;0.33;169.41;0.00;0.00;0.62;;;;;20.70;8.00;;;;;;2276719;61;991;-88
2022/10/16 07:11:00;92309.00;0.31;160.29;0.00;0.00;0.62;;;;;20.90;7.50;;;;;;2276625;61;922;-86
2022/10/16 07:13:27;188300.00;0.63;325.78;0.00;0.00;0.62;;;;;20.90;6.80;;;;;;2276749;61;1042;-87
2022/10/16 07:15:54;118133.00;0.39;204.86;0.00;0.00;0.62;;;;;20.80;7.40;;;;;;2276795;61;1490;-88
2022/10/16 07:18:26;355217.00;1.18;612.83;0.00;0.00;0.62;;;;;20.90;7.10;;;;;;2276732;61;1099;-87
2022/10/16 07:20:53;154096.00;0.51;266.87;0.00;0.00;0.62;;;;;20.40;8.90;;;;;;2276725;61;1157;-86
2022/10/16 07:23:20;188470.00;0.63;326.07;0.00;0.00;0.62;;;;;20.60;8.90;;;;;;2276620;61;1919;-87
2022/10/16 07:25:46;508467.00;1.69;876.40;109609.00;0.37;190.16;;;;;20.40;9.20;;;;;;2276620;61;1369;-87
2022/10/16 07:28:13;123662.00;0.41;214.40;0.00;0.00;0.62;;;;;20.30;10.20;;;;;;2276687;61;1038;-89
2022/10/16 07:30:40;236102.00;0.79;408.05;0.00;0.00;0.62;;;;;20.40;9.90;;;;;;2276652;61;1353;-88
2022/10/16 07:33:07;429829.00;1.43;741.09;74877.00;0.25;130.19;;;;;20.60;9.90;;;;;;2276748;61;947;-87
2022/10/16 07:35:35;85423.00;0.28;148.40;0.00;0.00;0.62;;;;;20.50;9.20;;;;;;2276654;61;1305;-87
2022/10/16 07:38:02;76421.00;0.25;132.85;0.00;0.00;0.62;;;;;20.30;9.20;;;;;;2276757;61;1129;-87
2022/10/16 07:40:29;124181.00;0.41;215.29;0.00;0.00;0.62;;;;;20.30;10.00;;;;;;2276646;61;1143;-86
2022/10/16 07:42:56;263184.00;0.88;454.62;0.00;0.00;0.62;;;;;20.40;9.50;;;;;;2276566;61;1924;-86
2022/10/16 07:45:23;66711.00;0.22;116.08;0.00;0.00;0.62;;;;;20.70;9.40;;;;;;2276658;61;1374;-88
2022/10/16 07:47:49;180962.00;0.60;313.15;0.00;0.00;0.62;;;;;20.90;9.20;;;;;;2276655;61;1049;-87
2022/10/16 07:50:16;227129.00;0.76;392.61;0.00;0.00;0.62;;;;;20.90;9.50;;;;;;2276644;61;1062;-86
2022/10/16 07:52:45;78868.00;0.26;137.08;0.00;0.00;0.62;;;;;20.90;9.30;;;;;;2276585;61;988;-86
2022/10/16 07:55:11;122077.00;0.41;211.67;0.00;0.00;0.62;;;;;20.90;10.00;;;;;;2276516;61;1374;-87
2022/10/16 07:57:38;58975.00;0.20;102.70;0.00;0.00;0.62;;;;;21.10;9.40;;;;;;2276624;61;1147;-87
2022/10/16 08:00:06;152977.00;0.51;264.94;0.00;0.00;0.62;;;;;21.20;9.20;;;;;;2276605;61;1079;-87
2022/10/16 08:02:33;188049.00;0.63;325.35;0.00;0.00;0.62;;;;;21.30;8.70;;;;;;2276422;61;1084;-86
2022/10/16 08:05:00;107771.00;0.36;186.98;0.00;0.00;0.62;;;;;21.50;8.80;;;;;;2276450;61;2007;-86
2022/10/16 08:07:27;130729.00;0.44;226.59;0.00;0.00;0.62;;;;;21.90;8.20;;;;;;2276529;61;1085;-87
2022/10/16 08:09:56;135885.00;0.45;235.48;19116.00;0.06;33.74;;;;;22.20;7.80;;;;;;2276556;61;1085;-86
2022/10/16 08:12:23;206287.00;0.69;356.75;0.00;0.00;0.62;;;;;22.10;7.60;;;;;;2276565;61;1063;-85
2022/10/16 08:14:50;315984.00;1.05;545.40;0.00;0.00;0.62;;;;;22.10;7.40;;;;;;2276444;61;1352;-88
2022/10/16 08:17:16;347308.00;1.16;599.23;93685.00;0.31;162.67;;;;;22.10;7.70;;;;;;2276525;61;1071;-87
2022/10/16 08:19:46;228091.00;0.76;394.26;0.00;0.00;0.62;;;;;22.20;7.70;;;;;;2276566;61;1106;-89
2022/10/16 08:22:13;179143.00;0.60;310.01;0.00;0.00;0.62;;;;;22.30;6.40;;;;;;2276552;61;1125;-87
2022/10/16 08:24:40;278857.00;0.93;481.57;0.00;0.00;0.62;;;;;22.20;6.80;;;;;;2276422;61;1919;-87
2022/10/16 08:27:09;189857.00;0.63;328.46;0.00;0.00;0.62;;;;;22.40;6.50;;;;;;2276603;61;1063;-87
2022/10/16 08:29:36;72458.00;0.24;126.01;0.00;0.00;0.62;;;;;22.60;6.40;;;;;;2276408;61;994;-87
2022/10/16 08:32:05;487068.00;1.62;839.56;142410.00;0.47;246.73;;;;;22.70;6.40;;;;;;2276482;61;1036;-87
2022/10/16 08:34:32;54548.00;0.18;95.05;0.00;0.00;0.62;;;;;22.90;6.80;;;;;;2276480;61;1386;-86
2022/10/16 08:36:58;130050.00;0.43;225.42;0.00;0.00;0.62;;;;;23.20;5.70;;;;;;2276559;61;1094;-86
2022/10/16 08:39:25;360012.00;1.20;621.07;0.00;0.00;0.62;;;;;23.30;5.90;;;;;;2276522;61;1055;-87
2022/10/16 08:42:12;339105.00;1.13;585.14;0.00;0.00;0.62;;;;;23.60;5.40;;;;;;2276474;61;1043;-86
2022/10/16 08:45:04;152890.00;0.51;264.79;0.00;0.00;0.62;;;;;23.90;4.10;;;;;;2276327;61;2020;-86
2022/10/16 08:47:46;255637.00;0.85;441.65;0.00;0.00;0.62;;;;;24.20;3.50;;;;;;2276478;61;1010;-86
2022/10/16 08:50:17;222672.00;0.74;384.94;0.00;0.00;0.62;;;;;24.10;4.40;;;;;;2276437;61;1152;-89
2022/10/16 08:52:45;138963.00;0.46;240.78;0.00;0.00;0.62;;;;;23.90;4.00;;;;;;2276501;61;954;-87
2022/10/16 08:55:33;286303.00;0.95;494.37;0.00;0.00;0.62;;;;;23.90;3.70;;;;;;2276370;61;1382;-86
2022/10/16 08:58:02;167588.00;0.56;290.11;0.00;0.00;0.62;;;;;23.70;3.90;;;;;;2276387;61;1122;-87
2022/10/16 09:00:30;289223.00;0.96;499.39;0.00;0.00;0.62;;;;;23.90;3.80;;;;;;2276437;61;1151;-88
2022/10/16 09:03:08;118740784.00;395.80;67817464.00;118474344.00;394.91;67361560.00;;;;;23.90;4.30;;;;;;2276379;61;1028;-86
2022/10/16 09:05:53;478776.00;1.60;825.29;56588.00;0.19;98.58;;;;;23.80;4.80;;;;;;2276317;61;1476;-86
2022/10/16 09:08:32;176771.00;0.59;305.93;0.00;0.00;0.62;;;;;24.00;3.30;;;;;;2276416;61;1056;-86
2022/10/16 09:11:05;423970.00;1.41;731.02;61907.00;0.21;107.77;;;;;23.90;3.20;;;;;;2276418;61;1044;-85
2022/10/16 09:13:47;247215.00;0.82;427.16;0.00;0.00;0.62;;;;;24.00;2.90;;;;;;2276277;61;1532;-86
2022/10/16 09:16:22;387721.00;1.29;668.70;58812.00;0.20;102.42;;;;;24.10;2.90;;;;;;2276361;61;1138;-86
2022/10/16 09:18:57;208359.00;0.69;360.31;0.00;0.00;0.62;;;;;24.30;3.30;;;;;;2276192;61;1089;-88
2022/10/16 09:21:27;311227.00;1.04;537.22;0.00;0.00;0.62;;;;;24.30;3.00;;;;;;2276337;61;1146;-85
2022/10/16 09:23:57;360743.00;1.20;622.33;0.00;0.00;0.62;;;;;24.60;2.90;;;;;;2276303;61;2008;-87
2022/10/16 09:26:24;247910.00;0.83;428.36;0.00;0.00;0.62;;;;;24.70;2.90;;;;;;2276366;61;1059;-86
2022/10/16 09:28:53;278175.00;0.93;480.40;27020.00;0.09;47.42;;;;;24.80;2.90;;;;;;2276395;61;1081;-85
2022/10/16 09:31:22;128977.00;0.43;223.57;0.00;0.00;0.62;;;;;24.40;1.10;;;;;;2276366;61;1064;-86
2022/10/16 09:33:54;270710.00;0.90;467.56;0.00;0.00;0.62;;;;;23.90;3.00;;;;;;2276313;61;1317;-85
2022/10/16 09:36:22;98148.00;0.33;170.37;0.00;0.00;0.62;;;;;23.90;2.40;;;;;;2276322;61;1585;-86
2022/10/16 09:38:50;192815.00;0.64;333.55;0.00;0.00;0.62;;;;;24.10;2.60;;;;;;2276326;61;1073;-86
2022/10/16 09:41:19;116968.00;0.39;202.85;0.00;0.00;0.62;;;;;24.10;1.70;;;;;;2276307;61;1134;-85
2022/10/16 09:43:56;92091.00;0.31;159.92;0.00;0.00;0.62;;;;;24.00;2.50;;;;;;2276227;61;1913;-85
2022/10/16 09:46:27;88846.00;0.30;154.32;12762.00;0.04;22.73;;;;;24.50;2.70;;;;;;2276289;61;1118;-87
2022/10/16 09:48:56;6666.00;0.02;12.17;0.00;0.00;0.62;;;;;24.70;2.40;;;;;;2276311;61;1102;-86
2022/10/16 09:51:27;71560.00;0.24;124.46;0.00;0.00;0.62;;;;;24.80;1.40;;;;;;2276184;61;1128;-85
2022/10/16 09:54:00;812.00;0.00;2.03;0.00;0.00;0.62;;;;;24.90;1.20;;;;;;2276262;61;1443;-86
2022/10/16 09:56:29;163353.00;0.54;282.82;0.00;0.00;0.62;;;;;25.10;1.10;;;;;;2276270;61;1039;-87
2022/10/16 09:58:59;122568.00;0.41;212.51;0.00;0.00;0.62;;;;;25.20;1.00;;;;;;2276222;61;1105;-87
2022/10/16 10:01:36;243537.00;0.81;420.84;0.00;0.00;0.62;;;;;25.20;1.00;;;;;;2276250;61;1008;-86
2022/10/16 10:04:03;167164.00;0.56;289.38;0.00;0.00;0.62;;;;;25.10;1.00;;;;;;2276157;61;1974;-86